createdAt,value
2022-08-19T00:00:46.265Z,0.10
2022-08-19T00:05:48.420Z,0.10
2022-08-19T00:10:47.037Z,0.20
2022-08-19T00:15:46.864Z,0.10
2022-08-19T00:20:52.290Z,0.20
2022-08-19T00:25:50.416Z,0.20
2022-08-19T00:30:50.342Z,0.20
2022-08-19T00:35:59.909Z,0.20
2022-08-19T00:41:01.275Z,0.10
2022-08-19T00:45:59.319Z,0.20
2022-08-19T00:50:58.847Z,0.10
2022-08-19T00:55:58.610Z,0.20
2022-08-19T01:01:01.725Z,0.10
2022-08-19T01:06:01.235Z,0.10
2022-08-19T01:11:06.242Z,0.20
2022-08-19T01:16:09.507Z,0.10
2022-08-19T01:21:15.426Z,0.13
2022-08-19T01:26:17.186Z,0.10
2022-08-19T01:31:27.049Z,0.20
2022-08-19T01:36:30.949Z,0.10
2022-08-19T01:41:32.712Z,0.10
2022-08-19T01:46:31.147Z,0.17
2022-08-19T01:51:29.459Z,0.10
2022-08-19T01:56:41.520Z,0.10
2022-08-19T02:01:39.570Z,0.10
2022-08-19T02:06:37.694Z,0.10
2022-08-19T02:11:38.669Z,0.20
2022-08-19T02:16:40.892Z,0.10
2022-08-19T02:21:39.205Z,0.17
2022-08-19T02:26:40.979Z,0.10
2022-08-19T02:31:40.031Z,0.10
2022-08-19T02:36:42.325Z,0.10
2022-08-19T02:41:44.681Z,0.10
2022-08-19T02:46:53.071Z,0.10
2022-08-19T02:51:54.861Z,0.13
2022-08-19T02:57:06.124Z,0.20
2022-08-19T03:02:04.269Z,0.20
2022-08-19T03:07:07.193Z,0.10
2022-08-19T03:12:20.807Z,0.10
2022-08-19T03:17:18.811Z,0.20
2022-08-19T03:22:18.293Z,0.10
2022-08-19T03:27:18.794Z,0.10
2022-08-19T03:32:32.605Z,0.10
2022-08-19T03:37:38.402Z,0.10
2022-08-19T03:42:59.677Z,0.10
2022-08-19T03:47:59.651Z,0.17
2022-08-19T03:52:58.685Z,0.10
2022-08-19T03:57:59.502Z,0.10
2022-08-19T04:03:02.116Z,0.20
2022-08-19T04:08:00.548Z,0.10
2022-08-19T04:13:03.015Z,0.20
2022-08-19T04:18:02.818Z,0.10
2022-08-19T04:23:05.005Z,0.20
2022-08-19T04:28:11.310Z,0.20
2022-08-19T04:33:12.197Z,0.10
2022-08-19T04:38:12.789Z,0.20
2022-08-19T04:43:24.294Z,0.10
2022-08-19T04:48:31.802Z,0.10
2022-08-19T04:53:57.450Z,0.20
2022-08-19T04:59:03.249Z,0.20
2022-08-19T05:04:01.864Z,0.20
2022-08-19T05:09:04.110Z,0.20
2022-08-19T05:14:06.520Z,0.10
2022-08-19T05:19:23.794Z,0.20
2022-08-19T05:24:27.255Z,0.20
2022-08-19T05:29:36.680Z,0.20
2022-08-19T05:34:34.839Z,0.20
2022-08-19T05:39:34.232Z,0.20
2022-08-19T05:44:35.990Z,0.20
2022-08-19T05:49:37.309Z,0.20
2022-08-19T05:54:41.263Z,0.20
2022-08-19T06:00:03.201Z,0.20
2022-08-19T06:05:26.506Z,0.20
2022-08-19T06:10:27.170Z,0.20
2022-08-19T06:15:59.142Z,0.20
2022-08-19T06:20:57.328Z,0.20
2022-08-19T06:25:57.912Z,0.20
2022-08-19T06:31:00.911Z,0.20
2022-08-19T06:35:59.038Z,0.20
2022-08-19T06:41:11.379Z,0.20
2022-08-19T06:46:37.130Z,0.15
2022-08-19T06:51:46.083Z,0.20
2022-08-19T06:56:48.988Z,0.20
2022-08-19T07:06:59.301Z,0.20
2022-08-19T07:12:18.724Z,0.20
2022-08-19T07:17:37.987Z,0.20
2022-08-19T07:22:41.390Z,0.20
2022-08-19T07:27:46.205Z,0.20
2022-08-19T07:33:03.576Z,0.20
2022-08-19T07:38:19.469Z,0.20
2022-08-19T07:43:19.741Z,0.20
2022-08-19T07:48:29.938Z,0.20
2022-08-19T07:53:33.273Z,0.20
2022-08-19T07:58:42.839Z,0.20
2022-08-19T08:04:06.892Z,0.20
2022-08-19T08:09:26.704Z,0.20
2022-08-19T08:14:55.944Z,0.20
2022-08-19T08:20:00.829Z,0.20
2022-08-19T08:25:19.131Z,0.20
2022-08-19T08:30:22.138Z,0.20
2022-08-19T08:35:37.988Z,0.20
2022-08-19T08:41:02.833Z,0.30
2022-08-19T08:50:59.679Z,0.20
2022-08-19T08:56:01.448Z,0.30
2022-08-19T09:06:11.848Z,0.25
2022-08-19T09:11:42.386Z,0.30
2022-08-19T09:16:46.950Z,0.30
2022-08-19T09:22:13.717Z,0.20
2022-08-19T09:27:42.462Z,0.30
2022-08-19T09:32:53.119Z,0.20
2022-08-19T09:37:57.638Z,0.22
2022-08-19T09:43:44.231Z,0.20
2022-08-19T09:49:06.870Z,0.20
2022-08-19T10:00:12.301Z,0.20
2022-08-19T10:05:26.624Z,0.20
2022-08-19T10:11:40.004Z,0.20
2022-08-19T10:16:30.326Z,0.30
2022-08-19T10:21:50.812Z,0.22
2022-08-19T10:26:59.946Z,0.20
2022-08-19T10:32:33.866Z,0.20
2022-08-19T10:37:49.839Z,0.20
2022-08-19T10:49:14.508Z,0.22
2022-08-19T11:24:39.861Z,0.30
2022-08-19T11:30:13.248Z,0.30
2022-08-19T11:35:35.005Z,0.30
2022-08-19T11:40:47.571Z,0.30
2022-08-19T11:45:47.229Z,0.30
2022-08-19T11:51:00.675Z,0.22
2022-08-19T11:56:32.480Z,0.30
2022-08-19T12:01:53.750Z,0.20
2022-08-19T12:07:31.379Z,0.20
2022-08-19T12:12:58.914Z,0.30
2022-08-19T12:18:27.432Z,0.20
2022-08-19T12:23:41.842Z,0.30
2022-08-19T12:28:59.239Z,0.30
2022-08-19T12:34:04.200Z,0.30
2022-08-19T12:39:02.410Z,0.20
2022-08-19T12:44:20.335Z,0.30
2022-08-19T12:49:53.286Z,0.30
2022-08-19T12:54:56.930Z,0.30
2022-08-19T12:59:58.984Z,0.30
2022-08-19T13:05:01.885Z,0.30
2022-08-19T13:10:22.361Z,0.30
2022-08-19T13:15:51.693Z,0.30
2022-08-19T13:21:08.898Z,0.30
2022-08-19T13:26:24.982Z,0.30
2022-08-19T13:31:52.107Z,0.30
2022-08-19T13:37:07.827Z,0.30
2022-08-19T13:42:19.407Z,0.30
2022-08-19T13:47:26.689Z,0.30
2022-08-19T13:52:41.723Z,0.30
2022-08-19T13:58:06.284Z,0.30
2022-08-19T14:03:09.296Z,0.30
2022-08-19T14:08:15.255Z,0.30
2022-08-19T14:13:40.297Z,0.30
2022-08-19T14:18:41.750Z,0.30
2022-08-19T14:23:56.127Z,0.25
2022-08-19T14:29:13.075Z,0.25
2022-08-19T14:34:27.871Z,0.30
2022-08-19T14:39:28.610Z,0.30
2022-08-19T14:44:29.162Z,0.30
2022-08-19T14:49:43.086Z,0.30
2022-08-19T14:55:01.755Z,0.28
2022-08-19T15:00:04.735Z,0.20
2022-08-19T15:05:05.499Z,0.30
2022-08-19T15:10:03.819Z,0.30
2022-08-19T15:15:03.375Z,0.30
2022-08-19T15:20:02.711Z,0.30
2022-08-19T15:25:02.166Z,0.20
2022-08-19T15:30:01.120Z,0.30
2022-08-19T15:35:02.617Z,0.30
2022-08-19T15:40:02.317Z,0.20
2022-08-19T15:45:02.522Z,0.20
2022-08-19T15:50:02.432Z,0.20
2022-08-19T15:55:00.532Z,0.20
2022-08-19T16:00:20.242Z,0.20
2022-08-19T16:05:38.998Z,0.20
2022-08-19T16:10:37.896Z,0.20
2022-08-19T16:15:37.151Z,0.20
2022-08-19T16:20:36.602Z,0.20
2022-08-19T16:25:43.490Z,0.20
2022-08-19T16:30:55.812Z,0.20
2022-08-19T16:36:07.824Z,0.20
2022-08-19T16:41:15.742Z,0.20
2022-08-19T16:46:34.700Z,0.20
2022-08-19T16:52:03.270Z,0.20
2022-08-19T16:57:16.422Z,0.20
2022-08-19T17:02:21.941Z,0.20
2022-08-19T17:07:40.302Z,0.20
2022-08-19T17:24:32.865Z,0.20
2022-08-19T17:29:46.782Z,0.20
2022-08-19T17:34:49.549Z,0.20
2022-08-19T17:40:24.026Z,0.20
2022-08-19T17:45:57.710Z,0.20
2022-08-19T17:51:03.360Z,0.20
2022-08-19T17:56:04.695Z,0.10
2022-08-19T18:01:53.839Z,0.10
2022-08-19T18:07:12.216Z,0.20
2022-08-19T18:12:37.697Z,0.20
2022-08-19T18:17:41.236Z,0.10
2022-08-19T18:24:05.497Z,0.20
2022-08-19T18:28:25.993Z,0.20
2022-08-19T18:39:51.456Z,0.20
2022-08-19T18:45:21.648Z,0.20
2022-08-19T18:50:50.367Z,0.20
2022-08-19T18:56:25.529Z,0.10
2022-08-19T19:02:43.440Z,0.20
2022-08-19T19:07:56.860Z,0.10
2022-08-19T19:25:25.541Z,0.20
2022-08-19T19:30:39.186Z,0.20
2022-08-19T19:35:57.562Z,0.13
2022-08-19T19:40:57.461Z,0.20
2022-08-19T19:45:56.930Z,0.10
2022-08-19T19:50:56.748Z,0.20
2022-08-19T19:56:48.120Z,0.20
2022-08-19T20:02:21.066Z,0.20
2022-08-19T20:08:47.948Z,0.20
2022-08-19T20:24:45.518Z,0.13
2022-08-19T20:30:33.087Z,0.10
2022-08-19T20:35:06.519Z,0.10
2022-08-19T20:40:10.975Z,0.10
2022-08-19T20:45:26.737Z,0.20
2022-08-19T20:50:39.708Z,0.20
2022-08-19T20:55:49.645Z,0.20
2022-08-19T21:00:49.253Z,0.10
2022-08-19T21:05:51.687Z,0.20
2022-08-19T21:10:56.495Z,0.10
2022-08-19T21:16:12.577Z,0.10
2022-08-19T21:21:12.565Z,0.20
2022-08-19T21:26:19.287Z,0.15
2022-08-19T21:31:30.610Z,0.10
2022-08-19T21:36:36.151Z,0.10
2022-08-19T21:41:43.798Z,0.13
2022-08-19T21:46:45.809Z,0.10
2022-08-19T21:51:56.209Z,0.10
2022-08-19T21:57:10.391Z,0.20
2022-08-19T22:09:27.507Z,0.10
2022-08-19T22:20:30.889Z,0.10
2022-08-19T22:26:29.469Z,0.10
2022-08-19T22:32:26.513Z,0.10
2022-08-19T22:38:16.365Z,0.20
2022-08-19T22:44:21.960Z,0.10
2022-08-19T22:56:23.580Z,0.10
2022-08-19T23:01:30.359Z,0.10
2022-08-19T23:06:38.122Z,0.10
2022-08-19T23:11:42.183Z,0.10
2022-08-19T23:16:56.961Z,0.10
2022-08-19T23:22:05.396Z,0.10
2022-08-19T23:27:23.480Z,0.20
2022-08-19T23:32:29.204Z,0.20
2022-08-19T23:37:27.258Z,0.10
2022-08-19T23:42:25.705Z,0.20
2022-08-19T23:47:25.223Z,0.20
2022-08-19T23:52:24.899Z,0.10
2022-08-19T23:57:23.146Z,0.10
